Time;durP1;ratioP1;P1;durP2;ratioP2;P2;SDS_P1;SDS_P2;PMS_P1;PMS_P2;Temp;Humidity;BMP_temperature;BMP_pressure;BME280_temperature;BME280_humidity;BME280_pressure;Samples;Min_cycle;Max_cycle;Signal;HPM_P1;HPM_P2
2023/08/26 00:01:29;;;;;;;11.37;7.50;;;;;;;;;;5028975;28;20793;-59
2023/08/26 00:03:54;;;;;;;11.23;7.33;;;;;;;;;;5025766;28;20415;-59
2023/08/26 00:06:20;;;;;;;11.07;6.67;;;;;;;;;;5022203;28;21003;-59
2023/08/26 00:08:45;;;;;;;9.67;6.80;;;;;;;;;;5020752;28;20407;-59
2023/08/26 00:11:10;;;;;;;10.83;7.10;;;;;;;;;;5022451;28;20403;-59
2023/08/26 00:13:35;;;;;;;10.33;6.80;;;;;;;;;;5023048;28;20434;-59
2023/08/26 00:16:01;;;;;;;12.50;6.97;;;;;;;;;;5018911;28;20409;-60
2023/08/26 00:18:26;;;;;;;11.17;7.00;;;;;;;;;;5022243;28;20395;-59
2023/08/26 00:20:52;;;;;;;10.87;6.60;;;;;;;;;;5023333;28;20494;-59
2023/08/26 00:23:17;;;;;;;10.00;7.00;;;;;;;;;;5018819;28;20413;-59
2023/08/26 00:25:42;;;;;;;10.20;6.70;;;;;;;;;;5021601;28;20418;-59
2023/08/26 00:28:07;;;;;;;10.87;6.70;;;;;;;;;;5023176;28;20616;-59
2023/08/26 00:30:33;;;;;;;12.63;7.30;;;;;;;;;;5020982;28;20474;-59
2023/08/26 00:32:59;;;;;;;11.87;7.07;;;;;;;;;;5026706;28;20402;-59
2023/08/26 00:35:24;;;;;;;13.57;8.07;;;;;;;;;;5031194;28;20402;-59
2023/08/26 00:37:51;;;;;;;13.40;7.70;;;;;;;;;;5031103;28;20407;-59
2023/08/26 00:40:16;;;;;;;11.63;8.30;;;;;;;;;;5027835;28;20476;-59
2023/08/26 00:42:42;;;;;;;11.37;8.00;;;;;;;;;;5034879;28;20764;-59
2023/08/26 00:45:07;;;;;;;12.47;8.80;;;;;;;;;;5028831;28;20442;-59
2023/08/26 00:47:32;;;;;;;11.43;8.33;;;;;;;;;;5027483;28;20809;-59
2023/08/26 00:49:58;;;;;;;12.00;8.20;;;;;;;;;;5020177;28;20415;-59
2023/08/26 00:52:23;;;;;;;12.20;7.93;;;;;;;;;;5024527;28;20946;-59
2023/08/26 00:54:48;;;;;;;10.23;7.60;;;;;;;;;;5032495;28;20401;-59
2023/08/26 00:57:14;;;;;;;15.53;8.63;;;;;;;;;;5029063;28;20496;-59
2023/08/26 00:59:39;;;;;;;13.50;8.43;;;;;;;;;;5030759;28;20429;-59
2023/08/26 01:02:04;;;;;;;12.17;8.80;;;;;;;;;;5030823;28;20413;-59
2023/08/26 01:04:30;;;;;;;11.48;8.40;;;;;;;;;;5016321;28;20407;-59
2023/08/26 01:06:55;;;;;;;14.68;9.20;;;;;;;;;;5022353;28;20439;-59
2023/08/26 01:09:21;;;;;;;13.07;9.30;;;;;;;;;;5022544;28;20482;-59
2023/08/26 01:11:46;;;;;;;13.87;8.77;;;;;;;;;;5018739;28;20407;-59
2023/08/26 01:14:12;;;;;;;13.53;8.67;;;;;;;;;;5019428;28;20407;-59
2023/08/26 01:16:38;;;;;;;12.90;8.80;;;;;;;;;;5023231;28;20433;-59
2023/08/26 01:19:03;;;;;;;12.82;9.60;;;;;;;;;;5021399;28;21056;-59
2023/08/26 01:21:31;;;;;;;13.70;9.27;;;;;;;;;;5016645;28;20402;-59
2023/08/26 01:23:56;;;;;;;12.73;9.00;;;;;;;;;;5021202;28;20419;-59
2023/08/26 01:26:22;;;;;;;13.63;9.50;;;;;;;;;;5033461;28;20381;-59
2023/08/26 01:28:47;;;;;;;15.60;9.73;;;;;;;;;;5029642;28;20767;-59
2023/08/26 01:31:12;;;;;;;13.90;9.53;;;;;;;;;;5016176;28;21064;-59
2023/08/26 01:33:44;;;;;;;14.03;9.47;;;;;;;;;;5023088;28;20430;-59
2023/08/26 01:36:10;;;;;;;11.57;8.93;;;;;;;;;;5018463;28;20422;-59
2023/08/26 01:38:35;;;;;;;15.47;9.23;;;;;;;;;;5031059;28;20908;-59
2023/08/26 01:41:01;;;;;;;14.80;10.05;;;;;;;;;;5024650;28;20407;-60
2023/08/26 01:43:26;;;;;;;12.20;9.38;;;;;;;;;;5023890;28;20518;-59
2023/08/26 01:45:52;;;;;;;14.97;9.73;;;;;;;;;;5029052;28;20403;-59
2023/08/26 01:48:17;;;;;;;14.63;10.20;;;;;;;;;;5019772;28;20801;-59
2023/08/26 01:50:42;;;;;;;12.47;9.50;;;;;;;;;;5037309;28;20444;-59
2023/08/26 01:53:08;;;;;;;12.67;8.50;;;;;;;;;;5033142;28;20444;-60
2023/08/26 01:55:34;;;;;;;12.65;8.07;;;;;;;;;;5032794;28;20401;-59
2023/08/26 01:57:59;;;;;;;12.10;7.30;;;;;;;;;;5033568;28;20470;-60
2023/08/26 02:00:24;;;;;;;12.43;7.23;;;;;;;;;;5036185;28;20409;-59
2023/08/26 02:02:50;;;;;;;11.20;7.60;;;;;;;;;;5034843;28;20428;-60
2023/08/26 02:05:15;;;;;;;12.90;7.97;;;;;;;;;;5035828;28;20914;-59
2023/08/26 02:07:42;;;;;;;12.80;7.73;;;;;;;;;;5032476;28;20402;-60
2023/08/26 02:10:07;;;;;;;11.18;6.60;;;;;;;;;;5022544;28;20774;-60
2023/08/26 02:12:33;;;;;;;8.83;5.57;;;;;;;;;;5006013;28;20416;-60
2023/08/26 02:15:01;;;;;;;8.38;5.40;;;;;;;;;;4989744;28;20899;-60
2023/08/26 02:17:26;;;;;;;8.80;5.43;;;;;;;;;;5010735;28;20397;-60
2023/08/26 02:19:51;;;;;;;7.87;5.30;;;;;;;;;;5012334;28;20409;-60
2023/08/26 02:22:16;;;;;;;8.67;5.83;;;;;;;;;;5009900;28;20879;-60
2023/08/26 02:24:42;;;;;;;8.87;6.13;;;;;;;;;;5010033;28;20421;-60
2023/08/26 02:27:07;;;;;;;10.53;7.03;;;;;;;;;;5013611;28;20969;-60
2023/08/26 02:29:32;;;;;;;9.60;6.80;;;;;;;;;;5004636;28;20975;-60
2023/08/26 02:31:58;;;;;;;8.83;6.40;;;;;;;;;;5001452;28;20482;-60
2023/08/26 02:34:25;;;;;;;11.13;7.90;;;;;;;;;;5008091;28;20410;-60
2023/08/26 02:36:51;;;;;;;11.48;7.75;;;;;;;;;;5015647;28;20411;-60
2023/08/26 02:39:16;;;;;;;12.15;7.45;;;;;;;;;;5000355;28;20408;-61
2023/08/26 02:41:41;;;;;;;10.40;7.47;;;;;;;;;;5004209;28;20497;-60
2023/08/26 02:44:07;;;;;;;12.70;6.67;;;;;;;;;;5003410;28;20419;-60
2023/08/26 02:46:32;;;;;;;12.23;6.50;;;;;;;;;;5011434;28;20407;-60
2023/08/26 02:48:57;;;;;;;11.30;5.87;;;;;;;;;;5002923;28;20486;-60
2023/08/26 02:51:22;;;;;;;10.93;5.70;;;;;;;;;;5001593;28;20409;-60
2023/08/26 02:53:48;;;;;;;10.60;5.60;;;;;;;;;;4994944;28;20941;-60
2023/08/26 02:56:13;;;;;;;12.53;5.70;;;;;;;;;;4998671;28;20413;-60
2023/08/26 02:58:38;;;;;;;10.67;5.67;;;;;;;;;;5010469;28;20409;-60
2023/08/26 03:01:06;;;;;;;11.47;5.53;;;;;;;;;;5007829;28;20434;-60
2023/08/26 03:03:31;;;;;;;11.93;5.80;;;;;;;;;;5009544;28;20405;-59
2023/08/26 03:05:57;;;;;;;12.07;5.40;;;;;;;;;;5011501;28;20522;-59
2023/08/26 03:08:22;;;;;;;12.55;5.40;;;;;;;;;;5014673;28;20417;-59
2023/08/26 03:10:57;;;;;;;12.77;5.63;;;;;;;;;;5009144;28;20394;-60
2023/08/26 03:13:22;;;;;;;11.95;5.60;;;;;;;;;;4997053;28;20851;-60
2023/08/26 03:15:47;;;;;;;10.90;5.97;;;;;;;;;;5022268;28;20403;-59
2023/08/26 03:18:13;;;;;;;12.47;5.97;;;;;;;;;;5022788;28;20410;-60
2023/08/26 03:20:38;;;;;;;12.67;7.13;;;;;;;;;;5016047;28;20396;-59
2023/08/26 03:23:03;;;;;;;10.32;6.07;;;;;;;;;;5030186;28;20783;-60
2023/08/26 03:25:29;;;;;;;14.02;5.85;;;;;;;;;;5029596;28;20412;-59
2023/08/26 03:27:54;;;;;;;12.67;6.37;;;;;;;;;;5031910;28;20413;-59
2023/08/26 03:30:19;;;;;;;12.23;6.17;;;;;;;;;;5034670;28;20380;-59
2023/08/26 03:32:45;;;;;;;12.13;6.30;;;;;;;;;;5031151;28;20985;-59
2023/08/26 03:35:10;;;;;;;12.07;6.13;;;;;;;;;;5016797;28;20406;-60
2023/08/26 03:37:35;;;;;;;9.70;5.47;;;;;;;;;;5024164;28;20395;-59
2023/08/26 03:40:04;;;;;;;11.80;5.80;;;;;;;;;;5020399;28;20898;-61
2023/08/26 03:42:29;;;;;;;13.20;5.50;;;;;;;;;;5021890;28;20519;-59
2023/08/26 03:44:55;;;;;;;10.97;5.40;;;;;;;;;;5023695;28;20496;-59
2023/08/26 03:47:20;;;;;;;9.37;5.27;;;;;;;;;;5022550;28;20853;-59
2023/08/26 03:49:45;;;;;;;11.47;4.90;;;;;;;;;;5019378;28;20440;-59
2023/08/26 03:52:10;;;;;;;9.40;4.83;;;;;;;;;;5023584;28;20403;-59
2023/08/26 03:54:36;;;;;;;11.77;5.30;;;;;;;;;;4982308;28;20418;-59
2023/08/26 03:57:01;;;;;;;11.87;5.30;;;;;;;;;;4985104;28;21344;-60
2023/08/26 03:59:27;;;;;;;8.82;4.63;;;;;;;;;;4987471;28;20441;-59
2023/08/26 04:01:52;;;;;;;10.90;4.57;;;;;;;;;;4989593;28;20421;-59
2023/08/26 04:04:17;;;;;;;8.25;4.40;;;;;;;;;;4991902;28;20423;-59
2023/08/26 04:06:42;;;;;;;11.07;4.73;;;;;;;;;;4995270;28;20460;-59
2023/08/26 04:09:08;;;;;;;10.20;4.27;;;;;;;;;;5000164;28;20405;-59
2023/08/26 04:11:33;;;;;;;12.50;4.33;;;;;;;;;;5000137;28;20487;-59
2023/08/26 04:13:59;;;;;;;8.00;3.57;;;;;;;;;;5002083;28;20436;-59
2023/08/26 04:16:24;;;;;;;8.67;3.97;;;;;;;;;;4980149;28;20472;-59
2023/08/26 04:18:49;;;;;;;7.20;3.87;;;;;;;;;;4980910;28;20395;-59
2023/08/26 04:21:15;;;;;;;8.48;3.80;;;;;;;;;;4986612;28;20405;-60
2023/08/26 04:23:40;;;;;;;10.70;4.18;;;;;;;;;;4989875;28;21361;-59
2023/08/26 04:26:06;;;;;;;10.80;3.87;;;;;;;;;;4987809;28;20460;-60
2023/08/26 04:28:31;;;;;;;8.07;3.87;;;;;;;;;;4989513;28;21068;-59
2023/08/26 04:30:56;;;;;;;8.50;3.60;;;;;;;;;;4997928;28;20691;-60
2023/08/26 04:33:22;;;;;;;7.30;3.67;;;;;;;;;;5004569;28;20488;-60
2023/08/26 04:35:47;;;;;;;8.50;3.90;;;;;;;;;;5005280;28;20491;-60
2023/08/26 04:38:13;;;;;;;9.10;3.90;;;;;;;;;;5003986;28;20902;-60
2023/08/26 04:40:38;;;;;;;8.37;3.33;;;;;;;;;;5001121;28;20760;-60
2023/08/26 04:43:03;;;;;;;8.67;3.70;;;;;;;;;;4997925;28;20791;-60
2023/08/26 04:45:29;;;;;;;8.47;3.60;;;;;;;;;;5001025;28;20415;-60
2023/08/26 04:47:54;;;;;;;9.90;3.63;;;;;;;;;;4989339;28;20415;-60
2023/08/26 04:50:19;;;;;;;9.50;3.28;;;;;;;;;;4987511;28;20383;-60
2023/08/26 04:52:45;;;;;;;9.50;3.30;;;;;;;;;;4991168;28;20408;-60
2023/08/26 04:55:10;;;;;;;7.50;3.17;;;;;;;;;;4991734;28;20437;-60
2023/08/26 04:57:35;;;;;;;9.63;3.10;;;;;;;;;;4988229;28;20423;-61
2023/08/26 05:00:01;;;;;;;8.33;3.20;;;;;;;;;;4983757;28;20406;-61
2023/08/26 05:02:26;;;;;;;9.10;3.40;;;;;;;;;;4985419;28;20414;-59
2023/08/26 05:04:53;;;;;;;7.13;3.20;;;;;;;;;;4981288;28;20506;-59
2023/08/26 05:07:18;;;;;;;7.35;3.33;;;;;;;;;;4983607;28;20460;-59
2023/08/26 05:09:44;;;;;;;8.00;3.07;;;;;;;;;;4991459;28;20407;-59
2023/08/26 05:12:09;;;;;;;6.13;2.73;;;;;;;;;;4990157;28;20720;-60
2023/08/26 05:14:34;;;;;;;6.00;2.50;;;;;;;;;;4988013;28;20472;-59
2023/08/26 05:17:00;;;;;;;9.73;2.70;;;;;;;;;;4989359;28;20537;-59
2023/08/26 05:19:25;;;;;;;5.65;2.30;;;;;;;;;;4991357;28;20441;-59
2023/08/26 05:21:50;;;;;;;8.48;2.67;;;;;;;;;;4989897;28;20760;-59
2023/08/26 05:24:16;;;;;;;7.40;2.20;;;;;;;;;;4982468;28;20430;-59
2023/08/26 05:26:42;;;;;;;6.03;2.10;;;;;;;;;;4988994;28;21123;-59
2023/08/26 05:29:08;;;;;;;7.00;2.20;;;;;;;;;;5009651;28;20998;-59
2023/08/26 05:31:34;;;;;;;6.68;2.30;;;;;;;;;;5004822;28;20397;-59
2023/08/26 05:33:59;;;;;;;6.87;1.97;;;;;;;;;;5007263;28;20435;-59
2023/08/26 05:36:24;;;;;;;7.40;2.20;;;;;;;;;;5005157;28;20393;-60
2023/08/26 05:38:50;;;;;;;5.23;2.20;;;;;;;;;;5010697;28;20408;-59
2023/08/26 05:41:15;;;;;;;4.87;2.10;;;;;;;;;;4992626;28;20414;-59
2023/08/26 05:43:41;;;;;;;8.10;1.80;;;;;;;;;;4996654;28;20419;-59
2023/08/26 05:46:06;;;;;;;4.93;1.80;;;;;;;;;;4983833;28;21172;-60
2023/08/26 05:48:31;;;;;;;7.27;2.00;;;;;;;;;;4981981;28;20407;-59
2023/08/26 05:50:58;;;;;;;5.67;1.90;;;;;;;;;;4976852;28;20801;-59
2023/08/26 05:53:24;;;;;;;7.47;1.90;;;;;;;;;;4994466;28;20412;-59
2023/08/26 05:55:49;;;;;;;5.97;1.93;;;;;;;;;;4989413;28;20508;-60
2023/08/26 05:58:14;;;;;;;8.00;1.70;;;;;;;;;;4990824;28;20422;-60
2023/08/26 06:00:40;;;;;;;7.83;2.00;;;;;;;;;;4998535;28;20425;-60
2023/08/26 06:03:05;;;;;;;7.17;1.83;;;;;;;;;;4989162;28;20536;-60
2023/08/26 06:05:30;;;;;;;7.60;2.10;;;;;;;;;;4990737;28;20828;-60
2023/08/26 06:07:56;;;;;;;5.10;1.60;;;;;;;;;;5010622;28;20442;-60
2023/08/26 06:10:21;;;;;;;5.20;1.90;;;;;;;;;;5012013;28;20397;-59
2023/08/26 06:12:46;;;;;;;6.57;1.73;;;;;;;;;;5013750;28;20479;-59
2023/08/26 06:15:11;;;;;;;5.37;1.50;;;;;;;;;;5024366;28;20478;-60
2023/08/26 06:17:41;;;;;;;6.33;1.97;;;;;;;;;;5019765;28;20456;-59
2023/08/26 06:20:06;;;;;;;6.68;1.83;;;;;;;;;;5025333;28;20826;-60
2023/08/26 06:22:31;;;;;;;5.67;1.67;;;;;;;;;;5024306;28;20501;-59
2023/08/26 06:24:57;;;;;;;4.70;1.63;;;;;;;;;;5020288;28;20405;-59
2023/08/26 06:27:23;;;;;;;5.47;1.60;;;;;;;;;;5024374;28;20401;-59
2023/08/26 06:29:54;;;;;;;7.13;1.70;;;;;;;;;;5020894;28;20414;-59
2023/08/26 06:32:20;;;;;;;6.72;1.60;;;;;;;;;;5022479;28;20754;-59
2023/08/26 06:34:45;;;;;;;5.93;1.90;;;;;;;;;;5022188;28;20407;-59
2023/08/26 06:37:11;;;;;;;5.78;1.50;;;;;;;;;;5024042;28;20807;-59
2023/08/26 06:39:36;;;;;;;5.07;1.45;;;;;;;;;;5025887;28;20469;-59
2023/08/26 06:42:01;;;;;;;5.00;1.90;;;;;;;;;;5018417;28;20890;-59
2023/08/26 06:44:27;;;;;;;4.40;1.52;;;;;;;;;;5013553;28;20406;-60
2023/08/26 06:46:52;;;;;;;5.60;1.83;;;;;;;;;;5012522;28;20409;-59
2023/08/26 06:49:17;;;;;;;6.23;1.90;;;;;;;;;;5015566;28;20399;-60
2023/08/26 06:51:42;;;;;;;5.33;1.83;;;;;;;;;;5012793;28;20406;-60
2023/08/26 06:54:08;;;;;;;7.90;2.00;;;;;;;;;;5013623;28;20423;-59
2023/08/26 06:56:33;;;;;;;6.57;1.90;;;;;;;;;;5023396;28;20797;-59
2023/08/26 06:58:58;;;;;;;5.73;1.70;;;;;;;;;;5020408;28;20476;-59
2023/08/26 07:01:24;;;;;;;5.93;1.83;;;;;;;;;;5024844;28;20975;-59
2023/08/26 07:03:49;;;;;;;6.60;1.90;;;;;;;;;;5024777;28;20415;-59
2023/08/26 07:06:15;;;;;;;8.37;2.67;;;;;;;;;;5018916;28;20490;-59
2023/08/26 07:08:41;;;;;;;7.47;2.20;;;;;;;;;;5015936;28;20929;-59
2023/08/26 07:11:06;;;;;;;7.70;1.97;;;;;;;;;;5023125;28;20427;-59
2023/08/26 07:13:31;;;;;;;5.90;1.90;;;;;;;;;;5020599;28;20395;-59
2023/08/26 07:15:57;;;;;;;5.70;1.70;;;;;;;;;;5018436;28;20434;-59
2023/08/26 07:18:22;;;;;;;7.53;2.17;;;;;;;;;;5024294;28;20731;-59
2023/08/26 07:20:47;;;;;;;6.47;1.97;;;;;;;;;;5021930;28;20407;-59
2023/08/26 07:23:13;;;;;;;5.20;1.67;;;;;;;;;;5019946;28;20430;-59
2023/08/26 07:25:38;;;;;;;6.97;1.90;;;;;;;;;;5016135;28;20403;-59
2023/08/26 07:28:03;;;;;;;7.77;2.00;;;;;;;;;;5022927;28;20410;-59
2023/08/26 07:30:29;;;;;;;5.57;1.73;;;;;;;;;;5013531;28;20757;-60
2023/08/26 07:32:55;;;;;;;5.35;2.00;;;;;;;;;;5022059;28;20419;-60
2023/08/26 07:35:20;;;;;;;6.17;1.80;;;;;;;;;;5022953;28;20860;-60
2023/08/26 07:37:45;;;;;;;5.40;2.10;;;;;;;;;;5021944;28;20438;-60
2023/08/26 07:40:12;;;;;;;6.97;2.17;;;;;;;;;;5021234;28;20405;-60
2023/08/26 07:42:37;;;;;;;6.30;1.90;;;;;;;;;;5022806;28;20415;-60
2023/08/26 07:45:03;;;;;;;5.80;2.00;;;;;;;;;;5015537;28;20420;-61
2023/08/26 07:47:28;;;;;;;5.77;1.80;;;;;;;;;;5017498;28;20437;-60
2023/08/26 07:49:53;;;;;;;5.53;1.80;;;;;;;;;;5024150;28;20418;-59
2023/08/26 07:52:19;;;;;;;4.40;1.80;;;;;;;;;;5023910;28;20394;-60
2023/08/26 07:54:44;;;;;;;6.27;1.80;;;;;;;;;;5019195;28;20419;-59
2023/08/26 07:57:09;;;;;;;6.47;1.90;;;;;;;;;;5022708;28;20404;-60
2023/08/26 07:59:34;;;;;;;7.57;2.20;;;;;;;;;;5023706;28;20418;-59
2023/08/26 08:02:00;;;;;;;6.20;2.00;;;;;;;;;;5020887;28;20422;-59
2023/08/26 08:04:25;;;;;;;6.60;2.13;;;;;;;;;;5020436;28;20416;-60
2023/08/26 08:06:51;;;;;;;5.18;1.85;;;;;;;;;;5023730;28;20409;-59
2023/08/26 08:09:16;;;;;;;6.50;2.00;;;;;;;;;;5019205;28;20910;-59
2023/08/26 08:11:42;;;;;;;5.55;1.80;;;;;;;;;;5018082;28;20442;-59
2023/08/26 08:14:07;;;;;;;5.83;1.70;;;;;;;;;;5014016;28;20502;-60
2023/08/26 08:16:33;;;;;;;6.50;2.13;;;;;;;;;;5022880;28;20902;-59
2023/08/26 08:18:58;;;;;;;5.93;2.13;;;;;;;;;;5019797;28;20414;-59
2023/08/26 08:21:23;;;;;;;6.03;2.10;;;;;;;;;;5021478;28;20387;-59
2023/08/26 08:23:48;;;;;;;5.67;1.70;;;;;;;;;;5022849;28;20411;-59
2023/08/26 08:26:16;;;;;;;6.57;1.80;;;;;;;;;;5021579;28;20413;-59
2023/08/26 08:28:41;;;;;;;5.28;1.50;;;;;;;;;;5019616;28;20410;-60
2023/08/26 08:31:06;;;;;;;5.03;1.40;;;;;;;;;;5021765;28;20416;-60
2023/08/26 08:33:33;;;;;;;5.37;1.70;;;;;;;;;;5023610;28;20410;-59
2023/08/26 08:35:59;;;;;;;5.82;1.60;;;;;;;;;;5018821;28;20411;-59
2023/08/26 08:38:24;;;;;;;7.33;2.23;;;;;;;;;;5021910;28;20391;-59
2023/08/26 08:40:50;;;;;;;6.20;1.87;;;;;;;;;;5022509;28;20414;-59
2023/08/26 08:43:15;;;;;;;8.40;2.20;;;;;;;;;;5019538;28;20422;-59
2023/08/26 08:45:41;;;;;;;7.07;2.03;;;;;;;;;;5019663;28;20439;-59
2023/08/26 08:48:07;;;;;;;5.10;1.70;;;;;;;;;;5022736;28;20538;-60
2023/08/26 08:50:32;;;;;;;5.68;1.40;;;;;;;;;;5021159;28;20403;-59
2023/08/26 08:52:58;;;;;;;4.70;1.50;;;;;;;;;;5018401;28;20407;-59
2023/08/26 08:55:23;;;;;;;5.03;1.60;;;;;;;;;;5026413;28;20397;-60
2023/08/26 08:57:49;;;;;;;5.27;1.50;;;;;;;;;;5025147;28;20426;-59
2023/08/26 09:00:15;;;;;;;8.43;2.20;;;;;;;;;;5015179;28;21161;-60
2023/08/26 09:02:40;;;;;;;6.27;1.97;;;;;;;;;;5012025;28;20490;-59
2023/08/26 09:05:06;;;;;;;7.27;1.67;;;;;;;;;;5008568;28;20466;-60
2023/08/26 09:07:31;;;;;;;6.38;1.60;;;;;;;;;;5015748;28;20404;-60
2023/08/26 09:09:57;;;;;;;6.87;1.67;;;;;;;;;;5018942;28;20407;-60
2023/08/26 09:12:22;;;;;;;6.33;1.90;;;;;;;;;;5024834;28;20452;-60
2023/08/26 09:14:48;;;;;;;4.33;1.57;;;;;;;;;;5026189;28;20395;-60
2023/08/26 09:17:15;;;;;;;4.43;1.17;;;;;;;;;;5021707;28;20414;-60
2023/08/26 09:19:50;;;;;;;7.00;1.80;;;;;;;;;;5024506;28;20403;-60
2023/08/26 09:22:16;;;;;;;5.63;1.57;;;;;;;;;;5026191;28;20434;-60
2023/08/26 09:24:42;;;;;;;5.55;1.65;;;;;;;;;;5024270;28;20917;-60
2023/08/26 09:27:07;;;;;;;6.33;1.60;;;;;;;;;;5023251;28;20410;-60
2023/08/26 09:29:32;;;;;;;5.57;1.50;;;;;;;;;;5025618;28;20463;-60
2023/08/26 09:31:58;;;;;;;4.67;1.40;;;;;;;;;;5025919;28;20403;-60
2023/08/26 09:34:49;;;;;;;4.23;1.20;;;;;;;;;;5020728;28;20400;-60
2023/08/26 09:37:14;;;;;;;6.72;1.40;;;;;;;;;;5014120;28;20421;-60
2023/08/26 09:39:46;;;;;;;4.33;1.50;;;;;;;;;;5026631;28;20411;-60
2023/08/26 09:42:12;;;;;;;4.80;1.40;;;;;;;;;;5024153;28;20454;-60
2023/08/26 09:44:37;;;;;;;3.90;1.10;;;;;;;;;;5020818;28;20983;-60
2023/08/26 09:47:03;;;;;;;5.03;1.10;;;;;;;;;;5025193;28;20482;-61
2023/08/26 09:49:28;;;;;;;4.83;1.30;;;;;;;;;;5026395;28;20410;-60
2023/08/26 09:51:54;;;;;;;4.17;1.10;;;;;;;;;;5018676;28;20801;-60
2023/08/26 09:54:21;;;;;;;4.53;1.05;;;;;;;;;;5024560;28;20403;-60
2023/08/26 09:56:47;;;;;;;3.83;1.20;;;;;;;;;;5026500;28;20474;-60
2023/08/26 09:59:12;;;;;;;4.30;1.10;;;;;;;;;;5022772;28;20411;-60
2023/08/26 10:01:38;;;;;;;3.47;1.20;;;;;;;;;;5022959;28;20411;-60
2023/08/26 10:04:04;;;;;;;4.93;1.23;;;;;;;;;;5025442;28;20939;-60
2023/08/26 10:06:30;;;;;;;4.85;1.20;;;;;;;;;;5025430;28;20407;-60
2023/08/26 10:08:58;;;;;;;4.95;1.20;;;;;;;;;;5020733;28;20758;-59
2023/08/26 10:11:23;;;;;;;4.70;1.70;;;;;;;;;;5025640;28;20447;-60
2023/08/26 10:13:50;;;;;;;4.68;1.30;;;;;;;;;;5025646;28;20811;-60
2023/08/26 10:16:16;;;;;;;3.97;0.90;;;;;;;;;;5019079;28;20806;-59
2023/08/26 10:18:43;;;;;;;4.00;0.90;;;;;;;;;;5016484;28;20906;-59
2023/08/26 10:21:08;;;;;;;5.22;1.10;;;;;;;;;;5025117;28;20995;-60
2023/08/26 10:23:33;;;;;;;4.30;0.93;;;;;;;;;;5023144;28;20449;-60
2023/08/26 10:25:59;;;;;;;4.23;1.20;;;;;;;;;;5022079;28;20421;-60
2023/08/26 10:28:25;;;;;;;5.70;1.20;;;;;;;;;;5024983;28;20819;-60
2023/08/26 10:30:53;;;;;;;5.23;1.20;;;;;;;;;;5024503;28;20430;-59
2023/08/26 10:33:18;;;;;;;4.90;1.02;;;;;;;;;;5020366;28;20410;-59
2023/08/26 10:35:56;;;;;;;5.13;1.00;;;;;;;;;;5025018;28;20430;-60
2023/08/26 10:38:21;;;;;;;4.10;1.30;;;;;;;;;;5024597;28;20538;-60
2023/08/26 10:40:46;;;;;;;3.50;1.13;;;;;;;;;;5024043;28;20415;-59
2023/08/26 10:43:12;;;;;;;3.90;1.00;;;;;;;;;;5019254;28;20439;-60
2023/08/26 10:45:45;;;;;;;3.88;0.90;;;;;;;;;;5022951;28;20968;-60
2023/08/26 10:48:10;;;;;;;4.40;1.05;;;;;;;;;;5024803;28;20801;-60
2023/08/26 10:50:35;;;;;;;3.53;0.80;;;;;;;;;;5020081;28;20426;-60
2023/08/26 10:53:12;;;;;;;4.77;1.20;;;;;;;;;;5024227;28;20417;-61
2023/08/26 10:55:37;;;;;;;5.75;1.52;;;;;;;;;;5024802;28;20438;-60
2023/08/26 10:58:10;;;;;;;6.10;1.35;;;;;;;;;;5022384;28;20435;-60
2023/08/26 11:00:36;;;;;;;3.25;1.00;;;;;;;;;;5021140;28;20480;-60
2023/08/26 11:03:03;;;;;;;3.40;0.90;;;;;;;;;;5024145;28;21068;-60
2023/08/26 11:05:28;;;;;;;4.30;1.17;;;;;;;;;;5023273;28;20403;-59
2023/08/26 11:07:54;;;;;;;2.57;0.93;;;;;;;;;;5020864;28;20766;-60
2023/08/26 11:10:26;;;;;;;5.47;1.00;;;;;;;;;;5022064;28;20422;-60
2023/08/26 11:12:51;;;;;;;3.13;1.10;;;;;;;;;;5023963;28;20413;-60
2023/08/26 11:15:17;;;;;;;4.33;1.00;;;;;;;;;;5022710;28;20403;-60
2023/08/26 11:17:42;;;;;;;6.23;1.20;;;;;;;;;;5020389;28;20788;-60
2023/08/26 11:20:08;;;;;;;4.87;1.43;;;;;;;;;;5017292;28;20416;-60
2023/08/26 11:22:33;;;;;;;3.65;1.30;;;;;;;;;;5024339;28;20395;-60
2023/08/26 11:24:58;;;;;;;3.65;1.02;;;;;;;;;;5018181;28;20432;-60
2023/08/26 11:27:23;;;;;;;2.95;0.80;;;;;;;;;;5022977;28;20902;-60
2023/08/26 11:29:49;;;;;;;2.63;0.80;;;;;;;;;;5019407;28;20407;-60
2023/08/26 11:32:14;;;;;;;2.60;0.80;;;;;;;;;;5021123;28;20399;-60
2023/08/26 11:34:39;;;;;;;2.30;0.70;;;;;;;;;;5021537;28;20403;-60
2023/08/26 11:37:05;;;;;;;3.13;0.73;;;;;;;;;;5028023;28;20421;-60
2023/08/26 11:39:31;;;;;;;2.00;0.70;;;;;;;;;;5025050;28;20485;-60
2023/08/26 11:41:56;;;;;;;2.20;0.83;;;;;;;;;;5021900;28;20411;-60
2023/08/26 11:44:22;;;;;;;2.67;0.70;;;;;;;;;;5021051;28;20763;-60
2023/08/26 11:46:48;;;;;;;2.03;0.60;;;;;;;;;;5023414;28;20403;-60
2023/08/26 11:49:13;;;;;;;2.50;0.60;;;;;;;;;;5022162;28;20410;-60
2023/08/26 11:51:40;;;;;;;3.97;0.95;;;;;;;;;;5019361;28;20410;-60
2023/08/26 11:54:06;;;;;;;3.55;0.85;;;;;;;;;;5023140;28;20504;-60
2023/08/26 11:56:31;;;;;;;3.25;1.05;;;;;;;;;;5023760;28;20449;-60
2023/08/26 11:58:57;;;;;;;3.10;0.73;;;;;;;;;;5001126;28;20423;-59
2023/08/26 12:01:22;;;;;;;2.90;0.90;;;;;;;;;;5022634;28;20479;-60
2023/08/26 12:03:48;;;;;;;2.27;0.70;;;;;;;;;;5023728;28;20423;-59
2023/08/26 12:06:16;;;;;;;3.42;1.00;;;;;;;;;;5019600;28;21415;-60
2023/08/26 12:08:42;;;;;;;2.83;0.80;;;;;;;;;;5019298;28;20490;-59
2023/08/26 12:11:08;;;;;;;2.67;0.60;;;;;;;;;;5023401;28;20415;-60
2023/08/26 12:13:38;;;;;;;3.90;0.70;;;;;;;;;;5022612;28;20398;-60
2023/08/26 12:16:03;;;;;;;3.75;0.70;;;;;;;;;;5017911;28;20421;-60
2023/08/26 12:18:28;;;;;;;2.17;0.60;;;;;;;;;;5022181;28;20403;-60
2023/08/26 12:20:54;;;;;;;1.73;0.60;;;;;;;;;;5023184;28;20410;-60
2023/08/26 12:23:19;;;;;;;3.50;0.80;;;;;;;;;;5016808;28;20433;-60
2023/08/26 12:25:45;;;;;;;2.63;0.60;;;;;;;;;;5021133;28;20803;-59
2023/08/26 12:28:18;;;;;;;3.53;0.50;;;;;;;;;;5022333;28;20450;-59
2023/08/26 12:30:43;;;;;;;1.73;0.60;;;;;;;;;;5020102;28;20399;-60
2023/08/26 12:33:09;;;;;;;1.53;0.60;;;;;;;;;;5019053;28;20411;-60
2023/08/26 12:35:34;;;;;;;1.80;0.43;;;;;;;;;;5023524;28;20401;-60
2023/08/26 12:38:02;;;;;;;2.05;0.55;;;;;;;;;;5022662;28;20407;-59
2023/08/26 12:40:28;;;;;;;2.13;0.60;;;;;;;;;;5018412;28;20946;-59
2023/08/26 12:42:53;;;;;;;2.95;0.70;;;;;;;;;;5021331;28;20436;-59
2023/08/26 12:45:18;;;;;;;1.58;0.40;;;;;;;;;;5018887;28;20740;-59
2023/08/26 12:47:44;;;;;;;1.70;0.68;;;;;;;;;;5016457;28;20492;-59
2023/08/26 12:50:09;;;;;;;1.40;0.50;;;;;;;;;;5019536;28;20441;-59
2023/08/26 12:52:34;;;;;;;2.67;0.68;;;;;;;;;;5023185;28;20406;-59
2023/08/26 12:55:00;;;;;;;2.40;0.60;;;;;;;;;;5022826;28;20413;-59
2023/08/26 12:57:25;;;;;;;1.73;0.60;;;;;;;;;;5017365;28;20453;-59
2023/08/26 12:59:50;;;;;;;1.63;0.50;;;;;;;;;;5023234;28;20411;-59
2023/08/26 13:02:16;;;;;;;2.07;0.60;;;;;;;;;;5022553;28;20906;-59
2023/08/26 13:04:41;;;;;;;2.37;0.60;;;;;;;;;;5016979;28;20422;-59
2023/08/26 13:07:07;;;;;;;2.45;0.50;;;;;;;;;;5021459;28;20407;-60
2023/08/26 13:09:32;;;;;;;2.03;0.60;;;;;;;;;;5023419;28;20446;-59
2023/08/26 13:11:57;;;;;;;2.20;0.70;;;;;;;;;;5020277;28;20399;-59
2023/08/26 13:14:22;;;;;;;1.97;0.43;;;;;;;;;;5019591;28;20391;-59
2023/08/26 13:16:48;;;;;;;1.90;0.50;;;;;;;;;;5022815;28;20909;-59
2023/08/26 13:19:13;;;;;;;1.43;0.57;;;;;;;;;;5014230;28;20488;-59
2023/08/26 13:21:38;;;;;;;3.07;0.70;;;;;;;;;;5017506;28;20403;-59
2023/08/26 13:24:04;;;;;;;2.73;0.67;;;;;;;;;;5022247;28;20797;-59
2023/08/26 13:26:29;;;;;;;3.20;0.80;;;;;;;;;;5020820;28;20429;-59
2023/08/26 13:28:55;;;;;;;1.87;0.50;;;;;;;;;;5018373;28;20499;-59
2023/08/26 13:31:20;;;;;;;2.50;0.60;;;;;;;;;;5012148;28;20407;-59
2023/08/26 13:33:45;;;;;;;2.60;0.50;;;;;;;;;;4992614;28;20468;-59
2023/08/26 13:36:11;;;;;;;2.27;0.70;;;;;;;;;;4984840;28;20422;-59
2023/08/26 13:38:36;;;;;;;1.90;0.50;;;;;;;;;;4989106;28;20897;-59
2023/08/26 13:41:01;;;;;;;2.17;0.50;;;;;;;;;;4990564;28;20425;-60
2023/08/26 13:43:26;;;;;;;2.00;0.60;;;;;;;;;;4994879;28;20426;-59
2023/08/26 13:45:52;;;;;;;1.63;0.60;;;;;;;;;;5000592;28;20416;-59
2023/08/26 13:48:17;;;;;;;2.47;0.60;;;;;;;;;;4994855;28;20415;-59
2023/08/26 13:50:42;;;;;;;2.23;0.67;;;;;;;;;;4995349;28;20412;-59
2023/08/26 13:53:08;;;;;;;1.90;0.60;;;;;;;;;;4997162;28;20410;-58
2023/08/26 13:55:33;;;;;;;2.80;0.70;;;;;;;;;;4994556;28;20414;-59
2023/08/26 13:57:58;;;;;;;1.57;0.60;;;;;;;;;;4987760;28;20412;-59
2023/08/26 14:00:24;;;;;;;2.57;0.60;;;;;;;;;;4988755;28;20468;-59
2023/08/26 14:02:49;;;;;;;2.40;0.63;;;;;;;;;;4995358;28;20862;-59
2023/08/26 14:05:14;;;;;;;2.00;0.70;;;;;;;;;;4994943;28;20422;-59
2023/08/26 14:07:40;;;;;;;2.07;0.50;;;;;;;;;;4995279;28;20398;-59
2023/08/26 14:10:05;;;;;;;2.87;0.60;;;;;;;;;;5000750;28;20424;-59
2023/08/26 14:12:31;;;;;;;1.47;0.60;;;;;;;;;;4996741;28;20414;-59
2023/08/26 14:14:56;;;;;;;1.90;0.65;;;;;;;;;;4995368;28;20494;-59
2023/08/26 14:17:22;;;;;;;2.23;0.60;;;;;;;;;;4994635;28;20406;-59
2023/08/26 14:19:47;;;;;;;1.83;0.60;;;;;;;;;;4989045;28;21298;-59
2023/08/26 14:22:12;;;;;;;1.73;0.63;;;;;;;;;;4986913;28;20411;-59
2023/08/26 14:24:38;;;;;;;1.27;0.60;;;;;;;;;;4990017;28;20517;-59
2023/08/26 14:27:03;;;;;;;1.70;0.53;;;;;;;;;;4996726;28;20409;-59
2023/08/26 14:29:28;;;;;;;1.70;0.60;;;;;;;;;;4994880;28;20410;-59
2023/08/26 14:31:53;;;;;;;3.20;0.70;;;;;;;;;;4995344;28;20902;-59